createdAt,value
2022-12-18T00:01:25.178Z,76.07
2022-12-18T00:03:53.645Z,75.97
2022-12-18T00:06:22.867Z,75.96
2022-12-18T00:08:51.979Z,75.13
2022-12-18T00:11:22.129Z,74.79
2022-12-18T00:13:51.486Z,75.75
2022-12-18T00:16:23.330Z,74.84
2022-12-18T00:18:52.726Z,75.32
2022-12-18T00:21:20.958Z,76.82
2022-12-18T00:23:50.282Z,76.23
2022-12-18T00:26:24.012Z,75.18
2022-12-18T00:28:54.205Z,75.94
2022-12-18T00:31:24.473Z,75.09
2022-12-18T00:33:54.097Z,75.04
2022-12-18T00:36:25.071Z,75.44
2022-12-18T00:38:53.657Z,75.21
2022-12-18T00:41:35.557Z,75.17
2022-12-18T00:44:05.934Z,74.42
2022-12-18T00:46:34.011Z,75.04
2022-12-18T00:49:01.757Z,75.09
2022-12-18T00:51:29.546Z,75.34
2022-12-18T00:53:57.609Z,75.52
2022-12-18T00:56:26.192Z,74.23
2022-12-18T00:58:54.334Z,74.47
2022-12-18T01:01:23.502Z,75.45
2022-12-18T01:03:51.680Z,74.73
2022-12-18T01:06:19.499Z,74.51
2022-12-18T01:08:47.314Z,73.75
2022-12-18T01:11:17.886Z,74.75
2022-12-18T01:13:45.659Z,74.68
2022-12-18T01:16:14.186Z,74.44
2022-12-18T01:18:43.569Z,76.53
2022-12-18T01:21:13.582Z,74.60
2022-12-18T01:23:41.839Z,74.10
2022-12-18T01:26:11.064Z,73.94
2022-12-18T01:28:38.976Z,73.93
2022-12-18T01:31:16.847Z,75.49
2022-12-18T01:33:46.925Z,74.89
2022-12-18T01:36:19.719Z,74.19
2022-12-18T01:38:48.539Z,73.68
2022-12-18T01:41:18.394Z,74.06
2022-12-18T01:43:49.150Z,74.77
2022-12-18T01:46:17.864Z,74.26
2022-12-18T01:48:48.883Z,74.66
2022-12-18T01:51:17.245Z,73.60
2022-12-18T01:53:46.737Z,72.72
2022-12-18T01:56:16.576Z,73.53
2022-12-18T01:58:53.887Z,74.93
2022-12-18T02:01:23.618Z,72.95
2022-12-18T02:03:53.435Z,76.33
2022-12-18T02:06:27.256Z,75.75
2022-12-18T02:09:07.458Z,75.30
2022-12-18T02:11:48.791Z,75.16
2022-12-18T02:14:25.623Z,74.58
2022-12-18T02:17:01.821Z,75.03
2022-12-18T02:19:44.504Z,73.51
2022-12-18T02:22:26.300Z,72.61
2022-12-18T02:25:08.439Z,73.05
2022-12-18T02:27:41.421Z,72.64
2022-12-18T02:30:10.302Z,73.06
2022-12-18T02:32:48.153Z,72.50
2022-12-18T02:35:19.018Z,73.13
2022-12-18T02:37:48.857Z,73.94
2022-12-18T02:40:19.226Z,73.76
2022-12-18T02:42:48.317Z,73.28
2022-12-18T02:45:16.111Z,73.31
2022-12-18T02:47:47.952Z,72.78
2022-12-18T02:50:24.709Z,71.83
2022-12-18T02:53:02.917Z,72.50
2022-12-18T02:55:43.185Z,71.67
2022-12-18T02:58:19.775Z,76.32
2022-12-18T03:00:56.800Z,78.40
2022-12-18T03:03:30.298Z,79.12
2022-12-18T03:06:04.017Z,78.71
2022-12-18T03:08:36.423Z,77.64
2022-12-18T03:11:06.848Z,77.83
2022-12-18T03:13:39.310Z,78.02
2022-12-18T03:16:09.666Z,77.62
2022-12-18T03:18:41.013Z,76.03
2022-12-18T03:21:11.793Z,75.48
2022-12-18T03:23:46.861Z,80.63
2022-12-18T03:26:17.781Z,81.85
2022-12-18T03:28:52.950Z,81.73
2022-12-18T03:31:24.281Z,80.18
2022-12-18T03:33:55.057Z,80.38
2022-12-18T03:36:24.791Z,78.65
2022-12-18T03:38:53.450Z,78.77
2022-12-18T03:41:30.699Z,77.71
2022-12-18T03:44:10.582Z,77.38
2022-12-18T03:46:47.370Z,76.38
2022-12-18T03:49:21.835Z,74.87
2022-12-18T03:51:56.600Z,75.36
2022-12-18T03:54:26.415Z,73.75
2022-12-18T03:57:00.202Z,74.70
2022-12-18T03:59:30.945Z,74.15
2022-12-18T04:02:01.610Z,74.52
2022-12-18T04:04:31.392Z,75.42
2022-12-18T04:07:00.501Z,74.33
2022-12-18T04:09:29.445Z,73.58
2022-12-18T04:11:57.218Z,71.88
2022-12-18T04:14:25.043Z,71.93
2022-12-18T04:16:54.151Z,74.13
2022-12-18T04:19:21.986Z,75.15
2022-12-18T04:21:49.762Z,74.62
2022-12-18T04:24:17.632Z,75.92
2022-12-18T04:26:45.361Z,77.65
2022-12-18T04:29:13.035Z,75.56
2022-12-18T04:31:40.903Z,73.74
2022-12-18T04:34:10.079Z,73.82
2022-12-18T04:36:37.924Z,74.33
2022-12-18T04:39:05.636Z,73.70
2022-12-18T04:41:33.362Z,71.89
2022-12-18T04:44:01.059Z,73.46
2022-12-18T04:46:28.943Z,74.22
2022-12-18T04:48:56.688Z,73.02
2022-12-18T04:51:26.804Z,75.77
2022-12-18T04:53:54.714Z,75.76
2022-12-18T04:56:22.778Z,75.07
2022-12-18T04:58:50.871Z,74.39
2022-12-18T05:01:20.265Z,72.99
2022-12-18T05:03:48.082Z,72.85
2022-12-18T05:06:15.975Z,72.03
2022-12-18T05:08:45.183Z,72.65
2022-12-18T05:11:16.714Z,71.50
2022-12-18T05:13:44.731Z,71.50
2022-12-18T05:16:13.129Z,71.67
2022-12-18T05:18:41.246Z,72.23
2022-12-18T05:21:08.971Z,72.82
2022-12-18T05:23:38.224Z,73.24
2022-12-18T05:26:09.311Z,72.59
2022-12-18T05:28:38.403Z,72.46
2022-12-18T05:31:07.168Z,71.22
2022-12-18T05:33:36.754Z,71.43
2022-12-18T05:36:07.029Z,73.97
2022-12-18T05:38:36.693Z,73.12
2022-12-18T05:41:04.823Z,74.92
2022-12-18T05:43:35.949Z,73.93
2022-12-18T05:46:06.383Z,73.69
2022-12-18T05:48:34.195Z,73.05
2022-12-18T05:51:07.637Z,71.62
2022-12-18T05:53:35.534Z,71.73
2022-12-18T05:56:04.751Z,70.99
2022-12-18T05:58:34.763Z,70.99
2022-12-18T06:01:09.271Z,71.96
2022-12-18T06:03:37.107Z,74.60
2022-12-18T06:06:05.303Z,76.81
2022-12-18T06:08:33.050Z,75.24
2022-12-18T06:11:00.819Z,75.76
2022-12-18T06:13:28.505Z,73.40
2022-12-18T06:15:57.610Z,75.57
2022-12-18T06:18:25.342Z,75.19
2022-12-18T06:20:57.739Z,74.16
2022-12-18T06:23:25.721Z,74.46
2022-12-18T06:25:53.995Z,76.00
2022-12-18T06:28:21.744Z,74.90
2022-12-18T06:30:50.277Z,73.93
2022-12-18T06:33:19.327Z,72.41
2022-12-18T06:35:46.981Z,72.77
2022-12-18T06:38:15.625Z,72.37
2022-12-18T06:40:43.304Z,73.16
2022-12-18T06:43:11.055Z,73.14
2022-12-18T06:45:38.762Z,72.23
2022-12-18T06:48:06.707Z,72.26
2022-12-18T06:50:35.799Z,71.77
2022-12-18T06:53:03.569Z,72.65
2022-12-18T06:55:31.889Z,73.47
2022-12-18T06:57:59.570Z,72.78
2022-12-18T07:00:27.555Z,72.96
2022-12-18T07:02:55.374Z,71.94
2022-12-18T07:05:23.107Z,71.76
2022-12-18T07:07:52.187Z,74.91
2022-12-18T07:10:20.112Z,74.28
2022-12-18T07:12:47.809Z,74.69
2022-12-18T07:15:15.718Z,75.81
2022-12-18T07:17:43.470Z,79.43
2022-12-18T07:20:12.247Z,78.90
2022-12-18T07:22:39.915Z,80.11
2022-12-18T07:25:09.941Z,82.89
2022-12-18T07:27:37.618Z,82.27
2022-12-18T07:30:06.397Z,82.75
2022-12-18T07:32:34.187Z,83.35
2022-12-18T07:35:01.886Z,83.13
2022-12-18T07:37:29.663Z,82.47
2022-12-18T07:39:57.375Z,82.76
2022-12-18T07:42:32.325Z,82.90
2022-12-18T07:45:00.164Z,82.28
2022-12-18T07:47:27.947Z,82.53
2022-12-18T07:49:57.160Z,80.23
2022-12-18T07:52:26.355Z,82.01
2022-12-18T07:54:54.293Z,80.83
2022-12-18T07:57:48.776Z,81.78
2022-12-18T08:00:13.316Z,81.83
2022-12-18T08:02:41.213Z,81.30
2022-12-18T08:05:10.730Z,80.18
2022-12-18T08:07:38.612Z,79.92
2022-12-18T08:10:07.617Z,78.03
2022-12-18T08:12:35.469Z,74.64
2022-12-18T08:15:03.390Z,71.65
2022-12-18T08:17:33.089Z,68.08
2022-12-18T08:20:00.869Z,63.69
2022-12-18T08:22:28.744Z,63.32
2022-12-18T08:24:56.911Z,61.95
2022-12-18T08:27:31.980Z,63.78
2022-12-18T08:30:00.637Z,62.44
2022-12-18T08:32:32.604Z,61.68
2022-12-18T08:35:01.842Z,65.17
2022-12-18T08:37:29.705Z,68.21
2022-12-18T08:39:57.396Z,70.37
2022-12-18T08:42:42.363Z,71.27
2022-12-18T08:45:11.004Z,73.54
2022-12-18T08:47:39.029Z,74.48
2022-12-18T08:50:08.785Z,74.01
2022-12-18T08:52:36.755Z,73.44
2022-12-18T08:55:07.722Z,74.20
2022-12-18T08:57:35.458Z,73.80
2022-12-18T09:00:03.173Z,74.61
2022-12-18T09:02:31.046Z,74.53
2022-12-18T09:04:58.815Z,75.75
2022-12-18T09:07:28.504Z,75.55
2022-12-18T09:09:56.301Z,75.83
2022-12-18T09:12:24.098Z,76.03
2022-12-18T09:14:51.872Z,75.85
2022-12-18T09:17:19.798Z,74.39
2022-12-18T09:19:47.737Z,75.29
2022-12-18T09:22:15.562Z,75.29
2022-12-18T09:24:44.680Z,73.89
2022-12-18T09:27:12.398Z,73.47
2022-12-18T09:29:40.389Z,72.17
2022-12-18T09:32:08.075Z,71.94
2022-12-18T09:34:35.932Z,71.12
2022-12-18T09:37:03.615Z,71.32
2022-12-18T09:39:31.333Z,71.95
2022-12-18T09:42:01.383Z,72.43
2022-12-18T09:44:31.911Z,72.17
2022-12-18T09:47:08.048Z,71.49
2022-12-18T09:49:39.377Z,71.79
2022-12-18T09:52:13.623Z,71.17
2022-12-18T09:54:54.140Z,71.39
2022-12-18T09:57:26.468Z,70.22
2022-12-18T09:59:57.605Z,71.48
2022-12-18T10:02:27.945Z,70.72
2022-12-18T10:05:13.505Z,70.20
2022-12-18T10:07:55.348Z,71.11
2022-12-18T10:10:35.802Z,70.78
2022-12-18T10:13:16.534Z,69.30
2022-12-18T10:15:56.922Z,69.57
2022-12-18T10:18:39.979Z,70.37
2022-12-18T10:21:14.410Z,69.73
2022-12-18T10:23:49.947Z,68.83
2022-12-18T10:26:17.658Z,68.16
2022-12-18T10:28:47.167Z,68.57
2022-12-18T10:31:18.917Z,68.73
2022-12-18T10:33:46.998Z,67.83
2022-12-18T10:36:14.715Z,66.37
2022-12-18T10:38:43.375Z,66.95
2022-12-18T10:41:27.690Z,66.96
2022-12-18T10:44:17.840Z,67.12
2022-12-18T10:46:47.077Z,67.29
2022-12-18T10:49:24.485Z,66.77
2022-12-18T10:51:53.566Z,67.28
2022-12-18T10:54:24.580Z,67.83
2022-12-18T10:56:52.278Z,66.62
2022-12-18T10:59:21.377Z,65.96
2022-12-18T11:01:51.876Z,68.18
2022-12-18T11:04:22.825Z,66.78
2022-12-18T11:06:59.970Z,65.75
2022-12-18T11:09:29.144Z,64.96
2022-12-18T11:12:00.057Z,66.70
2022-12-18T11:14:31.190Z,67.55
2022-12-18T11:19:55.245Z,66.00
2022-12-18T11:22:27.413Z,67.79
2022-12-18T11:27:51.371Z,67.45
2022-12-18T11:30:26.301Z,67.44
2022-12-18T11:32:57.851Z,67.75
2022-12-18T11:35:40.034Z,67.43
2022-12-18T11:38:19.415Z,66.19
2022-12-18T11:40:53.779Z,65.25
2022-12-18T11:43:28.081Z,65.78
2022-12-18T11:46:01.683Z,67.09
2022-12-18T11:48:32.605Z,65.15
2022-12-18T11:51:03.563Z,64.71
2022-12-18T11:53:32.506Z,65.54
2022-12-18T11:56:25.062Z,64.62
2022-12-18T11:59:00.182Z,66.56
2022-12-18T12:01:44.626Z,66.66
2022-12-18T12:04:34.025Z,65.43
2022-12-18T12:07:13.802Z,65.68
2022-12-18T12:09:52.075Z,65.70
2022-12-18T12:12:48.650Z,67.43
2022-12-18T12:15:28.147Z,67.89
2022-12-18T12:18:10.934Z,67.93
2022-12-18T12:20:49.775Z,67.09
2022-12-18T12:23:28.215Z,68.33
2022-12-18T12:26:04.930Z,67.83
2022-12-18T12:28:51.482Z,68.70
2022-12-18T12:31:32.524Z,68.58
2022-12-18T12:34:07.533Z,67.97
2022-12-18T12:36:53.640Z,68.00
2022-12-18T12:39:27.113Z,68.10
2022-12-18T12:42:15.792Z,68.89
2022-12-18T12:44:52.642Z,68.26
2022-12-18T12:47:30.178Z,67.39
2022-12-18T12:50:01.335Z,66.07
2022-12-18T12:52:36.848Z,66.89
2022-12-18T12:55:11.515Z,67.55
2022-12-18T12:57:47.777Z,66.14
2022-12-18T13:00:19.411Z,65.82
2022-12-18T13:02:54.809Z,66.68
2022-12-18T13:05:32.465Z,65.90
2022-12-18T13:08:07.270Z,65.80
2022-12-18T13:10:38.253Z,64.90
2022-12-18T13:13:08.988Z,64.67
2022-12-18T13:15:41.040Z,64.17
2022-12-18T13:18:16.811Z,66.24
2022-12-18T13:20:53.625Z,66.02
2022-12-18T13:23:35.129Z,64.95
2022-12-18T13:26:31.924Z,66.80
2022-12-18T13:29:00.509Z,68.50
2022-12-18T13:32:02.286Z,68.12
2022-12-18T13:34:33.006Z,67.49
2022-12-18T13:37:34.735Z,70.45
2022-12-18T13:40:04.807Z,70.00
2022-12-18T13:43:00.305Z,70.36
2022-12-18T13:46:00.517Z,70.63
2022-12-18T13:48:29.980Z,70.43
2022-12-18T13:51:01.594Z,71.00
2022-12-18T13:53:34.958Z,70.29
2022-12-18T13:56:04.877Z,70.25
2022-12-18T13:58:33.156Z,70.82
2022-12-18T14:01:03.090Z,70.41
2022-12-18T14:03:32.404Z,69.63
2022-12-18T14:06:07.926Z,71.05
2022-12-18T14:08:40.674Z,70.08
2022-12-18T14:11:23.232Z,72.29
2022-12-18T14:13:51.672Z,71.96
2022-12-18T14:16:19.830Z,72.20
2022-12-18T14:18:52.849Z,72.47
2022-12-18T14:21:25.217Z,73.34
2022-12-18T14:24:06.504Z,72.60
2022-12-18T14:26:35.796Z,72.27
2022-12-18T14:29:21.640Z,73.10
2022-12-18T14:32:08.387Z,72.49
2022-12-18T14:34:38.309Z,72.97
2022-12-18T14:37:06.544Z,72.76
2022-12-18T14:39:34.349Z,73.25
2022-12-18T14:42:03.512Z,73.15
2022-12-18T14:44:44.160Z,74.70
2022-12-18T14:47:18.990Z,75.83
2022-12-18T14:49:46.880Z,75.23
2022-12-18T14:52:28.301Z,75.53
2022-12-18T14:54:56.177Z,75.77
2022-12-18T14:57:27.453Z,74.40
2022-12-18T14:59:55.288Z,74.97
2022-12-18T15:02:25.806Z,75.95
2022-12-18T15:05:04.378Z,76.55
2022-12-18T15:07:42.929Z,77.15
2022-12-18T15:10:13.992Z,76.59
2022-12-18T15:12:44.706Z,76.24
2022-12-18T15:15:48.630Z,77.22
2022-12-18T15:18:18.947Z,77.01
2022-12-18T15:20:49.286Z,77.65
2022-12-18T15:23:20.629Z,77.12
2022-12-18T15:25:50.450Z,77.65
2022-12-18T15:28:25.100Z,76.90
2022-12-18T15:31:05.706Z,77.76
2022-12-18T15:33:35.503Z,78.34
2022-12-18T15:36:05.626Z,77.78
2022-12-18T15:38:34.183Z,78.06
2022-12-18T15:41:02.955Z,79.41
2022-12-18T15:43:37.919Z,79.54
2022-12-18T15:46:07.560Z,79.86
2022-12-18T15:48:37.650Z,79.15
2022-12-18T15:51:07.426Z,79.89
2022-12-18T15:53:35.641Z,79.59
2022-12-18T15:56:21.048Z,79.94
2022-12-18T15:58:50.313Z,80.18
2022-12-18T16:01:22.591Z,79.47
2022-12-18T16:03:50.425Z,79.28
2022-12-18T16:06:18.352Z,79.76
2022-12-18T16:08:46.043Z,79.51
2022-12-18T16:11:39.084Z,80.33
2022-12-18T16:14:17.424Z,80.70
2022-12-18T16:16:46.474Z,80.15
2022-12-18T16:19:14.259Z,79.29
2022-12-18T16:21:42.078Z,80.97
2022-12-18T16:24:16.781Z,80.71
2022-12-18T16:26:45.079Z,80.19
2022-12-18T16:29:14.200Z,81.47
2022-12-18T16:31:42.345Z,81.11
2022-12-18T16:34:15.313Z,81.03
2022-12-18T16:36:43.105Z,81.53
2022-12-18T16:39:10.878Z,81.91
2022-12-18T16:41:38.706Z,81.26
2022-12-18T16:44:06.472Z,81.97
2022-12-18T16:46:35.752Z,81.75
2022-12-18T16:49:03.520Z,81.99
2022-12-18T16:51:31.444Z,81.53
2022-12-18T16:53:59.150Z,82.35
2022-12-18T16:56:27.355Z,81.33
2022-12-18T16:58:56.724Z,81.65
2022-12-18T17:01:25.359Z,82.58
2022-12-18T17:03:55.894Z,82.06
2022-12-18T17:06:24.283Z,82.79
2022-12-18T17:08:58.185Z,82.95
2022-12-18T17:11:26.763Z,82.19
2022-12-18T17:13:55.519Z,82.01
2022-12-18T17:16:23.853Z,82.13
2022-12-18T17:18:51.928Z,82.39
2022-12-18T17:21:20.999Z,81.96
2022-12-18T17:23:48.654Z,81.33
2022-12-18T17:26:16.400Z,81.95
2022-12-18T17:28:44.448Z,82.54
2022-12-18T17:31:13.715Z,82.23
2022-12-18T17:33:41.989Z,82.16
2022-12-18T17:36:10.580Z,81.32
2022-12-18T17:38:40.177Z,82.29
2022-12-18T17:41:10.189Z,82.87
2022-12-18T17:43:39.583Z,81.42
2022-12-18T17:46:08.110Z,81.76
2022-12-18T17:48:37.332Z,81.51
2022-12-18T17:51:06.734Z,80.75
2022-12-18T17:53:34.597Z,81.90
2022-12-18T17:56:05.678Z,81.47
2022-12-18T17:58:33.762Z,79.90
2022-12-18T18:01:01.277Z,81.69
2022-12-18T18:03:29.272Z,80.30
2022-12-18T18:05:57.340Z,81.24
2022-12-18T18:08:25.015Z,81.00
2022-12-18T18:10:52.558Z,81.59
2022-12-18T18:13:46.461Z,80.71
2022-12-18T18:16:14.582Z,80.15
2022-12-18T18:18:42.125Z,80.46
2022-12-18T18:21:09.891Z,80.82
2022-12-18T18:23:38.563Z,80.50
2022-12-18T18:26:08.248Z,79.52
2022-12-18T18:28:37.634Z,79.07
2022-12-18T18:31:06.016Z,80.38
2022-12-18T18:33:33.893Z,80.72
2022-12-18T18:36:01.403Z,79.77
2022-12-18T18:38:29.383Z,79.57
2022-12-18T18:41:00.366Z,79.61
2022-12-18T18:43:27.969Z,79.39
2022-12-18T18:45:58.004Z,78.68
2022-12-18T18:48:25.721Z,79.32
2022-12-18T18:50:58.336Z,79.86
2022-12-18T18:53:25.852Z,79.57
2022-12-18T18:56:17.440Z,79.33
2022-12-18T18:58:41.190Z,80.63
2022-12-18T19:01:11.672Z,80.30
2022-12-18T19:03:40.041Z,80.03
2022-12-18T19:06:08.487Z,79.40
2022-12-18T19:08:37.965Z,79.44
2022-12-18T19:11:26.641Z,79.86
2022-12-18T19:13:53.269Z,79.11
2022-12-18T19:16:24.408Z,78.54
2022-12-18T19:18:54.969Z,79.16
2022-12-18T19:21:27.711Z,78.35
2022-12-18T19:23:58.053Z,78.93
2022-12-18T19:26:28.288Z,78.41
2022-12-18T19:29:01.352Z,79.52
2022-12-18T19:31:35.208Z,78.07
2022-12-18T19:34:04.218Z,78.74
2022-12-18T19:36:32.601Z,79.22
2022-12-18T19:39:01.641Z,79.24
2022-12-18T19:41:31.242Z,79.27
2022-12-18T19:44:01.120Z,78.66
2022-12-18T19:46:37.129Z,76.83
2022-12-18T19:49:09.916Z,77.64
2022-12-18T19:51:37.648Z,79.47
2022-12-18T19:54:05.548Z,78.11
2022-12-18T19:56:34.113Z,79.25
2022-12-18T19:59:02.089Z,78.00
2022-12-18T20:01:30.547Z,78.96
2022-12-18T20:04:01.093Z,78.68
2022-12-18T20:06:30.334Z,77.80
2022-12-18T20:09:00.267Z,77.58
2022-12-18T20:11:28.463Z,78.37
2022-12-18T20:13:55.955Z,78.37
2022-12-18T20:16:23.491Z,78.18
2022-12-18T20:18:51.392Z,79.01
2022-12-18T20:21:21.229Z,78.20
2022-12-18T20:23:48.843Z,78.17
2022-12-18T20:26:16.357Z,77.81
2022-12-18T20:28:43.911Z,78.05
2022-12-18T20:31:13.834Z,77.29
2022-12-18T20:33:43.198Z,76.52
2022-12-18T20:36:15.261Z,77.42
2022-12-18T20:38:45.261Z,77.70
2022-12-18T20:41:15.663Z,76.42
2022-12-18T20:43:43.587Z,75.85
2022-12-18T20:46:13.265Z,76.54
2022-12-18T20:48:40.897Z,77.86
2022-12-18T20:51:09.385Z,76.99
2022-12-18T20:53:37.382Z,77.39
2022-12-18T20:56:09.956Z,77.67
2022-12-18T20:58:37.620Z,75.47
2022-12-18T21:01:06.350Z,75.28
2022-12-18T21:03:33.969Z,75.51
2022-12-18T21:06:01.548Z,76.26
2022-12-18T21:08:29.054Z,74.47
2022-12-18T21:10:56.568Z,76.00
2022-12-18T21:13:25.101Z,75.12
2022-12-18T21:15:54.655Z,72.87
2022-12-18T21:18:22.137Z,73.74
2022-12-18T21:20:49.639Z,71.48
2022-12-18T21:23:17.434Z,72.87
2022-12-18T21:25:45.679Z,71.13
2022-12-18T21:28:14.469Z,71.23
2022-12-18T21:30:43.495Z,71.96
2022-12-18T21:33:11.077Z,74.34
2022-12-18T21:35:38.607Z,74.02
2022-12-18T21:38:06.380Z,71.82
2022-12-18T21:40:33.902Z,72.05
2022-12-18T21:43:18.874Z,73.64
2022-12-18T21:45:47.773Z,73.96
2022-12-18T21:48:15.332Z,72.15
2022-12-18T21:50:42.943Z,71.19
2022-12-18T21:53:10.584Z,70.10
2022-12-18T21:55:38.158Z,71.76
2022-12-18T21:58:05.895Z,72.43
2022-12-18T22:00:33.471Z,70.30
2022-12-18T22:03:17.993Z,72.27
2022-12-18T22:05:46.556Z,72.84
2022-12-18T22:08:17.396Z,72.96
2022-12-18T22:10:45.181Z,72.44
2022-12-18T22:13:12.781Z,71.92
2022-12-18T22:15:40.379Z,72.42
2022-12-18T22:18:11.657Z,71.92
2022-12-18T22:20:39.207Z,71.39
2022-12-18T22:23:06.814Z,71.29
2022-12-18T22:25:34.809Z,70.59
2022-12-18T22:28:21.309Z,70.56
2022-12-18T22:30:48.880Z,70.74
2022-12-18T22:33:21.573Z,70.24
2022-12-18T22:35:49.044Z,70.48
2022-12-18T22:38:16.643Z,69.86
2022-12-18T22:40:44.208Z,70.76
2022-12-18T22:43:11.796Z,71.60
2022-12-18T22:45:39.438Z,71.14
2022-12-18T22:48:07.288Z,70.76
2022-12-18T22:50:36.271Z,71.20
2022-12-18T22:53:03.755Z,71.16
2022-12-18T22:55:31.362Z,71.67
2022-12-18T22:57:58.900Z,71.43
2022-12-18T23:00:26.478Z,71.55
2022-12-18T23:02:59.838Z,71.02
2022-12-18T23:05:28.450Z,71.37
2022-12-18T23:07:57.508Z,69.66
2022-12-18T23:10:24.983Z,71.00
2022-12-18T23:12:52.556Z,69.79
2022-12-18T23:15:24.212Z,69.84
2022-12-18T23:17:55.982Z,71.13
2022-12-18T23:20:23.511Z,70.67
2022-12-18T23:22:51.152Z,69.23
2022-12-18T23:25:20.093Z,70.52
2022-12-18T23:27:47.600Z,70.81
2022-12-18T23:30:15.605Z,70.64
2022-12-18T23:32:43.102Z,69.88
2022-12-18T23:35:10.832Z,70.54
2022-12-18T23:37:59.324Z,70.81
2022-12-18T23:40:29.373Z,70.09
2022-12-18T23:42:56.985Z,71.23
2022-12-18T23:45:24.485Z,71.17
2022-12-18T23:47:52.011Z,69.90
2022-12-18T23:50:19.504Z,70.96
2022-12-18T23:52:51.345Z,69.19
2022-12-18T23:55:18.925Z,68.87
2022-12-18T23:57:47.830Z,70.06
